Impacts METAR Board
IDs:

KIAH - Houston/Bush Intl, TX, US

Updated at: 2000 UTC 23 Sep 2018
Potential Impact None Slight Moderate High
Time 23/08Z 23/09Z 23/10Z 23/11Z 23/12Z 23/13Z 23/14Z 23/15Z 23/16Z 23/17Z 23/18Z 23/19Z 23/20Z
Temp72 72 71 72 71 71 72 76 77 79 82 83 83
Dewpt72 71 71 71 71 71 71 71 71 71 71 71 71
Altim29.90 29.88 29.88 29.88 29.89 29.90 29.92 29.93 29.94 29.93 29.92 29.89 29.86
VIS9 9 9 10 10 10 10 10 10 10 10 10 10
CIG16 18 18 18 250 60 55 250 15 23 28 250 250
CoverBKNBKNOVCOVCBKNBKNBKNBKNBKNBKNBKNBKNBKN
FltCatMVFRMVFRMVFRMVFRVFRVFRVFRVFRMVFRMVFRMVFRVFRVFR
WX--------------------------
WDir300320028002402600240250260260230
WSpd6 3 0 4 0 3 4 4 5 6 7 8 10
WGst-- -- -- -- -- -- -- -- -- -- -- -- --
Raw hourly METARs
KIAH 230753Z 30006KT 9SM SCT005 BKN016 BKN100 22/22 A2990 RMK AO2 RAE04 TSE04 SLP123 TS DSPTD P0000 T02220222
KIAH 230853Z 32003KT 9SM FEW006 BKN018 BKN100 22/22 A2988 RMK AO2 SLP118 60048 T02220217 50000
KIAH 231005Z 00000KT 9SM SCT005 OVC018 22/22 A2988 RMK AO2 T02170217
KIAH 231053Z 28004KT 10SM FEW005 OVC018 22/22 A2988 RMK AO2 SLP119 T02220217
KIAH 231153Z 00000KT 10SM SCT018 SCT085 BKN250 22/22 A2989 RMK AO2 SLP121 60048 70122 T02170217 10256 20211 53003
KIAH 231253Z 24003KT 10SM FEW018 BKN060 BKN250 22/22 A2990 RMK AO2 SLP126 T02170217
KIAH 231353Z 26004KT 10SM SCT009 BKN055 BKN250 22/22 A2992 RMK AO2 SLP131 T02220217
KIAH 231453Z VRB04KT 10SM SCT010 SCT055 SCT180 BKN250 24/22 A2993 RMK AO2 SLP133 T02440217 51012
KIAH 231553Z 24005KT 10SM BKN015 BKN180 BKN250 25/22 A2994 RMK AO2 SLP137 T02500217
KIAH 231653Z 25006KT 10SM BKN023 BKN250 26/22 A2993 RMK AO2 SLP136 T02610217
KIAH 231753Z 26007KT 230V300 10SM BKN028 BKN250 28/22 A2992 RMK AO2 SLP130 T02780217 10278 20217 58003
KIAH 231853Z 26008KT 10SM SCT032 BKN250 28/22 A2989 RMK AO2 SLP121 T02830217
KIAH 231953Z 23010KT 10SM SCT034 BKN250 28/22 A2986 RMK AO2 SLP112 T02830217



Page loaded:  20:17 UTC  |   01:17 PM Pacific  |   02:17 PM Mountain  |   03:17 PM Central  |   04:17 PM Eastern

 

ADVISORIES

FORECASTS

FORECASTS

OBSERVATIONS

USER TOOLS

ABOUT US